Airfield :
LOGIN :

Register | Disclaimer

   EN    FR    IT 

 










Legend :    VFR   Marginal VFR   IFR   Intensive IFR   Very Intensive IFR
Visi :
Ceiling :
>= 8 km
>= 3000ft
5 to 8 km
1000 to 3000 ft
1500m to 5 km
500 to 1000 ft
800 to 1500m
200 to 500 ft
< 800m
< 200 ft
Symbols :   Thunderstorms  Fog  Heavy snow  Heavy precipitations  Wind > 20 kt
SIGMETs :     Misc.  Thunderstorms  Icing  Turbulence  Mountain Waves  Volcanic Ashes






- Airport Elevation : 309 ft
- IATA code : FNI


LFTW - Nîmes Garons

CURRENT METAR :
  • 160600Z AUTO 17004KT 130V200 7000 OVC002/// ///TCU 15/14 Q1009 TEMPO 3000 RA BKN008 BKN035

EXPIRED METARs :
  • 160530Z AUTO 15004KT 110V180 4900 BR VV/// ///TCU 14/14 Q1009 TEMPO RA BKN008 BKN035
  • 160500Z AUTO 15004KT 1400 R18/1700U -RA BR VV/// ///TCU 14/14 Q1009 TEMPO 3000 RA BKN008 BKN035
  • 160430Z AUTO 15006KT 110V180 1100 R18/1400D BR VV/// ///TCU 14/13 Q1009 TEMPO 3000 RA BKN008 BKN035
  • 160400Z AUTO 14005KT 1300 1200 R18/1600U BR VV/// 14/14 Q1009 TEMPO 3000 RA BKN008 BKN035
  • 160330Z AUTO 13004KT 3000 BR OVC002 14/14 Q1009 TEMPO RA BKN008 BKN035

TAF TAF LFTW
Valid from the 16 at 03:00 until the 17 at 03:00 UTC


160200Z 1603/1703 VRB03KT 9999 SCT020 BKN060
TEMPO 1603/1608 3000 RA BKN008 BKN035
TEMPO 1608/1610 BKN010
BECMG 1609/1611 NSC
PROB30
TEMPO 1612/1615 27010KT RA BKN040



MET'MAP, your aeronautical weather chart ! - Copyright ORBIFLY December 2007 - Disclaimer

ORBIFLY MET'MAP TEAM :

Programming & Development : Alexandra Zaïnal
Concept & original design : Baudouin d'Aumeries
Assistance for programming : Marc-Olivier Méhu
Technical & hardware support : Manuel Goepfert

Contact : metmap@orbifly.com




SOURCES & CREDITS :

   NOAA